createdAt,value
2023-02-23T00:00:39.597Z,6.80
2023-02-23T00:03:36.449Z,6.80
2023-02-23T00:06:36.094Z,6.70
2023-02-23T00:09:35.900Z,6.80
2023-02-23T00:12:34.201Z,6.80
2023-02-23T00:15:31.474Z,6.70
2023-02-23T00:18:30.146Z,6.70
2023-02-23T00:21:35.006Z,6.70
2023-02-23T00:24:31.836Z,6.70
2023-02-23T00:27:28.650Z,6.70
2023-02-23T00:30:26.474Z,6.70
2023-02-23T00:33:23.321Z,6.80
2023-02-23T00:36:23.423Z,6.70
2023-02-23T00:39:26.297Z,6.80
2023-02-23T00:42:24.661Z,6.80
2023-02-23T00:45:22.591Z,6.80
2023-02-23T00:48:19.413Z,6.90
2023-02-23T00:51:18.583Z,6.90
2023-02-23T00:54:17.135Z,7.00
2023-02-23T00:57:13.992Z,7.00
2023-02-23T01:00:18.677Z,6.90
2023-02-23T01:03:15.518Z,6.90
2023-02-23T01:06:16.336Z,6.90
2023-02-23T01:09:21.749Z,6.80
2023-02-23T01:12:19.008Z,6.70
2023-02-23T01:15:17.307Z,6.60
2023-02-23T01:18:19.195Z,6.80
2023-02-23T01:21:20.132Z,6.80
2023-02-23T01:24:17.336Z,6.70
2023-02-23T01:27:14.302Z,6.70
2023-02-23T01:30:15.404Z,6.70
2023-02-23T01:33:13.759Z,6.70
2023-02-23T01:36:10.786Z,6.70
2023-02-23T01:39:12.092Z,6.70
2023-02-23T01:42:15.044Z,6.70
2023-02-23T01:45:34.753Z,6.60
2023-02-23T01:48:39.390Z,6.60
2023-02-23T01:51:48.520Z,6.70
2023-02-23T01:54:52.694Z,6.70
2023-02-23T01:57:58.041Z,6.80
2023-02-23T02:01:02.500Z,6.70
2023-02-23T02:04:05.664Z,6.70
2023-02-23T02:07:04.414Z,6.70
2023-02-23T02:10:10.842Z,6.70
2023-02-23T02:13:14.813Z,6.60
2023-02-23T02:16:38.679Z,6.50
2023-02-23T02:20:33.131Z,6.50
2023-02-23T02:24:11.208Z,6.40
2023-02-23T02:27:31.776Z,6.40
2023-02-23T02:31:13.248Z,6.40
2023-02-23T02:34:48.422Z,6.30
2023-02-23T02:38:27.254Z,6.40
2023-02-23T02:41:35.808Z,6.40
2023-02-23T02:45:12.204Z,6.50
2023-02-23T02:48:45.372Z,6.60
2023-02-23T02:52:25.068Z,6.60
2023-02-23T02:55:28.112Z,6.60
2023-02-23T02:58:25.643Z,6.60
2023-02-23T03:01:40.993Z,6.70
2023-02-23T03:04:56.559Z,6.60
2023-02-23T03:08:27.952Z,6.50
2023-02-23T03:11:54.958Z,6.50
2023-02-23T03:15:44.171Z,6.50
2023-02-23T03:18:59.652Z,6.50
2023-02-23T03:22:56.964Z,6.50
2023-02-23T03:26:51.244Z,6.50
2023-02-23T03:30:29.302Z,6.60
2023-02-23T03:34:26.452Z,6.60
2023-02-23T03:37:50.757Z,6.60
2023-02-23T03:41:09.978Z,6.50
2023-02-23T03:44:33.893Z,6.50
2023-02-23T03:47:56.180Z,6.50
2023-02-23T03:51:18.354Z,6.60
2023-02-23T03:54:47.433Z,6.70
2023-02-23T03:58:08.717Z,6.60
2023-02-23T04:01:27.829Z,6.50
2023-02-23T04:04:46.662Z,6.40
2023-02-23T04:08:06.554Z,6.40
2023-02-23T04:11:33.792Z,6.50
2023-02-23T04:14:48.755Z,6.40
2023-02-23T04:17:46.014Z,6.40
2023-02-23T04:20:43.070Z,6.30
2023-02-23T04:23:41.219Z,6.40
2023-02-23T04:26:38.344Z,6.40
2023-02-23T04:29:35.248Z,6.40
2023-02-23T04:32:32.541Z,6.40
2023-02-23T04:35:31.298Z,6.30
2023-02-23T04:38:28.124Z,6.20
2023-02-23T04:41:25.047Z,6.20
2023-02-23T04:44:21.888Z,6.20
2023-02-23T04:47:18.697Z,6.30
2023-02-23T04:50:16.321Z,6.20
2023-02-23T04:53:13.205Z,6.20
2023-02-23T04:56:11.088Z,6.20
2023-02-23T04:59:07.908Z,6.20
2023-02-23T05:02:04.852Z,6.20
2023-02-23T05:05:01.733Z,6.30
2023-02-23T05:07:58.581Z,6.30
2023-02-23T05:10:55.442Z,6.20
2023-02-23T05:13:52.344Z,6.30
2023-02-23T05:16:49.767Z,6.40
2023-02-23T05:19:46.586Z,6.30
2023-02-23T05:22:43.407Z,6.30
2023-02-23T05:25:40.412Z,6.20
2023-02-23T05:28:40.666Z,6.00
2023-02-23T05:31:37.674Z,6.00
2023-02-23T05:34:35.132Z,5.90
2023-02-23T05:37:31.951Z,5.90
2023-02-23T05:40:28.782Z,5.80
2023-02-23T05:43:26.020Z,5.80
2023-02-23T05:46:26.362Z,5.70
2023-02-23T05:49:23.996Z,5.80
2023-02-23T05:52:20.817Z,5.80
2023-02-23T05:55:17.668Z,5.90
2023-02-23T05:58:14.483Z,5.90
2023-02-23T06:01:11.637Z,6.00
2023-02-23T06:04:08.619Z,5.90
2023-02-23T06:07:05.826Z,5.80
2023-02-23T06:10:02.903Z,5.70
2023-02-23T06:12:59.782Z,5.70
2023-02-23T06:15:57.525Z,5.70
2023-02-23T06:18:54.385Z,5.80
2023-02-23T06:21:52.990Z,5.70
2023-02-23T06:24:49.932Z,5.70
2023-02-23T06:27:47.078Z,5.60
2023-02-23T06:30:44.895Z,5.60
2023-02-23T06:33:41.768Z,5.60
2023-02-23T06:36:38.616Z,5.60
2023-02-23T06:39:35.836Z,5.60
2023-02-23T06:42:32.986Z,5.60
2023-02-23T06:45:30.193Z,5.70
2023-02-23T06:48:27.623Z,5.70
2023-02-23T06:51:24.435Z,5.70
2023-02-23T06:54:21.326Z,5.70
2023-02-23T06:57:18.777Z,5.80
2023-02-23T07:00:18.224Z,5.80
2023-02-23T07:03:15.786Z,5.80
2023-02-23T07:06:12.836Z,5.90
2023-02-23T07:09:09.810Z,5.90
2023-02-23T07:12:06.906Z,6.00
2023-02-23T07:15:04.387Z,6.10
2023-02-23T07:18:01.181Z,6.10
2023-02-23T07:20:58.664Z,6.20
2023-02-23T07:23:55.500Z,6.20
2023-02-23T07:26:52.345Z,6.40
2023-02-23T07:29:49.170Z,6.60
2023-02-23T07:32:46.291Z,6.60
2023-02-23T07:35:43.191Z,6.70
2023-02-23T07:38:40.061Z,6.80
2023-02-23T07:41:37.076Z,6.90
2023-02-23T07:44:34.499Z,7.00
2023-02-23T07:47:31.644Z,7.00
2023-02-23T07:50:28.670Z,7.10
2023-02-23T07:53:27.859Z,7.20
2023-02-23T07:56:24.694Z,7.40
2023-02-23T07:59:21.658Z,7.40
2023-02-23T08:02:18.569Z,7.50
2023-02-23T08:05:15.460Z,7.50
2023-02-23T08:08:12.362Z,7.50
2023-02-23T08:11:09.209Z,7.60
2023-02-23T08:14:06.069Z,7.70
2023-02-23T08:17:03.369Z,7.80
2023-02-23T08:20:00.889Z,7.90
2023-02-23T08:22:58.561Z,8.10
2023-02-23T08:25:55.442Z,8.20
2023-02-23T08:28:54.198Z,8.30
2023-02-23T08:31:54.516Z,8.30
2023-02-23T08:34:51.539Z,8.30
2023-02-23T08:37:48.329Z,8.40
2023-02-23T08:40:45.199Z,8.50
2023-02-23T08:43:42.134Z,8.60
2023-02-23T08:46:39.002Z,8.70
2023-02-23T08:49:35.885Z,8.80
2023-02-23T08:52:32.831Z,8.90
2023-02-23T08:55:29.643Z,8.90
2023-02-23T08:58:28.684Z,8.90
2023-02-23T09:01:25.805Z,8.90
2023-02-23T09:04:22.925Z,9.00
2023-02-23T09:07:23.107Z,9.00
2023-02-23T09:10:20.873Z,9.10
2023-02-23T09:13:18.255Z,9.30
2023-02-23T09:16:15.913Z,9.60
2023-02-23T09:19:13.999Z,9.80
2023-02-23T09:22:10.977Z,9.90
2023-02-23T09:25:10.393Z,9.80
2023-02-23T09:28:07.248Z,9.70
2023-02-23T09:31:11.097Z,9.60
2023-02-23T09:34:09.408Z,9.60
2023-02-23T09:37:06.415Z,9.70
2023-02-23T09:40:03.568Z,9.80
2023-02-23T09:43:42.505Z,9.60
2023-02-23T09:46:49.442Z,9.70
2023-02-23T09:49:48.890Z,9.80
2023-02-23T09:52:53.546Z,9.90
2023-02-23T09:55:54.019Z,9.90
2023-02-23T09:58:51.192Z,9.90
2023-02-23T10:01:48.065Z,9.70
2023-02-23T10:04:57.512Z,9.80
2023-02-23T10:08:03.830Z,9.90
2023-02-23T10:11:29.196Z,10.00
2023-02-23T10:14:50.496Z,10.10
2023-02-23T10:18:14.549Z,10.10
2023-02-23T10:21:38.662Z,10.10
2023-02-23T10:24:51.103Z,10.10
2023-02-23T10:27:50.514Z,10.10
2023-02-23T10:30:50.014Z,10.00
2023-02-23T10:33:47.884Z,10.00
2023-02-23T10:36:58.423Z,10.00
2023-02-23T10:39:55.268Z,10.10
2023-02-23T10:42:54.233Z,10.00
2023-02-23T10:45:52.975Z,9.90
2023-02-23T10:48:52.715Z,10.00
2023-02-23T10:51:52.236Z,10.20
2023-02-23T10:54:52.934Z,10.20
2023-02-23T10:57:53.732Z,10.00
2023-02-23T11:01:11.032Z,10.00
2023-02-23T11:04:29.712Z,10.20
2023-02-23T11:07:34.360Z,9.90
2023-02-23T11:10:32.088Z,9.90
2023-02-23T11:13:48.383Z,9.90
2023-02-23T11:16:45.269Z,10.10
2023-02-23T11:19:42.139Z,10.10
2023-02-23T11:22:42.067Z,10.10
2023-02-23T11:25:45.080Z,10.00
2023-02-23T11:28:44.247Z,10.00
2023-02-23T11:31:52.075Z,9.70
2023-02-23T11:35:20.752Z,9.70
2023-02-23T11:38:26.741Z,9.80
2023-02-23T11:41:24.713Z,9.70
2023-02-23T11:44:23.948Z,9.90
2023-02-23T11:47:22.862Z,9.90
2023-02-23T11:50:34.019Z,9.70
2023-02-23T11:53:46.595Z,9.60
2023-02-23T11:56:55.051Z,9.60
2023-02-23T11:59:52.976Z,9.60
2023-02-23T12:02:58.852Z,9.70
2023-02-23T12:05:59.112Z,9.80
2023-02-23T12:09:13.000Z,9.90
2023-02-23T12:12:18.026Z,9.80
2023-02-23T12:15:40.622Z,9.90
2023-02-23T12:18:59.176Z,9.90
2023-02-23T12:22:11.585Z,9.90
2023-02-23T12:25:56.820Z,10.00
2023-02-23T12:29:04.344Z,9.90
2023-02-23T12:32:14.756Z,10.00
2023-02-23T12:35:17.359Z,9.90
2023-02-23T12:38:37.266Z,9.90
2023-02-23T12:41:48.044Z,10.10
2023-02-23T12:45:02.969Z,10.00
2023-02-23T12:48:15.192Z,9.90
2023-02-23T12:51:32.206Z,9.90
2023-02-23T12:54:30.438Z,9.90
2023-02-23T12:57:54.672Z,10.00
2023-02-23T13:01:03.068Z,10.00
2023-02-23T13:04:09.033Z,9.90
2023-02-23T13:07:46.878Z,9.90
2023-02-23T13:11:44.318Z,10.10
2023-02-23T13:15:25.646Z,10.10
2023-02-23T13:18:44.730Z,10.10
2023-02-23T13:22:24.164Z,10.10
2023-02-23T13:25:33.889Z,10.10
2023-02-23T13:29:26.249Z,10.00
2023-02-23T13:32:29.334Z,10.10
2023-02-23T13:35:26.574Z,9.90
2023-02-23T13:39:17.978Z,9.90
2023-02-23T13:42:40.343Z,10.00
2023-02-23T13:46:16.354Z,9.90
2023-02-23T13:49:58.008Z,9.80
2023-02-23T13:52:58.286Z,9.80
2023-02-23T13:56:01.781Z,9.80
2023-02-23T13:59:08.365Z,9.70
2023-02-23T14:02:40.885Z,9.70
2023-02-23T14:05:45.072Z,9.70
2023-02-23T14:08:45.319Z,9.80
2023-02-23T14:12:19.386Z,9.80
2023-02-23T14:15:25.444Z,9.80
2023-02-23T14:18:22.226Z,9.80
2023-02-23T14:21:22.073Z,9.80
2023-02-23T14:24:27.543Z,9.80
2023-02-23T14:27:42.327Z,9.90
2023-02-23T14:30:51.305Z,10.00
2023-02-23T14:33:49.723Z,10.00
2023-02-23T14:36:46.828Z,10.00
2023-02-23T14:39:43.913Z,9.90
2023-02-23T14:42:41.577Z,9.80
2023-02-23T14:45:39.457Z,9.80
2023-02-23T14:48:45.383Z,9.80
2023-02-23T14:51:48.500Z,9.70
2023-02-23T14:54:45.825Z,9.80
2023-02-23T14:57:44.256Z,9.80
2023-02-23T15:00:42.877Z,9.90
2023-02-23T15:03:39.684Z,9.90
2023-02-23T15:06:38.652Z,9.90
2023-02-23T15:09:43.012Z,9.90
2023-02-23T15:12:39.865Z,9.80
2023-02-23T15:15:45.229Z,9.80
2023-02-23T15:19:33.558Z,9.90
2023-02-23T15:22:37.555Z,9.80
2023-02-23T15:25:39.437Z,10.00
2023-02-23T15:28:40.693Z,10.00
2023-02-23T15:31:40.811Z,10.00
2023-02-23T15:34:38.023Z,10.10
2023-02-23T15:37:45.233Z,10.10
2023-02-23T15:40:42.243Z,10.10
2023-02-23T15:43:39.829Z,9.90
2023-02-23T15:46:41.492Z,9.90
2023-02-23T15:49:42.026Z,9.90
2023-02-23T15:52:48.308Z,10.00
2023-02-23T15:55:47.521Z,10.00
2023-02-23T15:58:56.950Z,9.90
2023-02-23T16:01:54.877Z,9.90
2023-02-23T16:04:57.643Z,9.90
2023-02-23T16:08:23.391Z,9.90
2023-02-23T16:11:21.944Z,9.90
2023-02-23T16:14:20.988Z,9.80
2023-02-23T16:17:46.914Z,9.80
2023-02-23T16:20:56.061Z,9.70
2023-02-23T16:23:55.125Z,9.60
2023-02-23T16:27:00.027Z,9.60
2023-02-23T16:30:23.245Z,9.50
2023-02-23T16:33:26.498Z,9.50
2023-02-23T16:36:38.586Z,9.50
2023-02-23T16:39:35.479Z,9.40
2023-02-23T16:42:34.823Z,9.40
2023-02-23T16:45:31.672Z,9.30
2023-02-23T16:48:30.117Z,9.30
2023-02-23T16:51:28.098Z,9.10
2023-02-23T16:54:25.331Z,9.10
2023-02-23T16:57:26.903Z,9.00
2023-02-23T17:00:30.621Z,9.00
2023-02-23T17:03:30.410Z,9.00
2023-02-23T17:06:27.548Z,9.00
2023-02-23T17:09:25.053Z,8.90
2023-02-23T17:12:22.014Z,8.80
2023-02-23T17:15:21.104Z,8.80
2023-02-23T17:21:25.583Z,8.70
2023-02-23T17:24:26.006Z,8.80
2023-02-23T17:27:22.830Z,8.70
2023-02-23T17:30:20.961Z,8.60
2023-02-23T17:33:18.181Z,8.60
2023-02-23T17:36:17.737Z,8.60
2023-02-23T17:39:16.774Z,8.50
2023-02-23T17:42:14.572Z,8.50
2023-02-23T17:45:11.607Z,8.60
2023-02-23T17:48:08.423Z,8.50
2023-02-23T17:51:10.172Z,8.50
2023-02-23T17:54:07.019Z,8.50
2023-02-23T17:57:03.877Z,8.60
2023-02-23T18:00:00.730Z,8.50
2023-02-23T18:02:57.608Z,8.50
2023-02-23T18:05:58.758Z,8.40
2023-02-23T18:08:55.549Z,8.40
2023-02-23T18:11:52.503Z,8.30
2023-02-23T18:14:49.426Z,8.50
2023-02-23T18:17:46.315Z,8.40
2023-02-23T18:20:51.009Z,8.30
2023-02-23T18:23:49.750Z,8.20
2023-02-23T18:26:46.652Z,8.20
2023-02-23T18:29:43.499Z,8.40
2023-02-23T18:32:40.394Z,8.40
2023-02-23T18:35:44.882Z,8.20
2023-02-23T18:38:41.695Z,8.10
2023-02-23T18:41:38.794Z,8.20
2023-02-23T18:44:35.668Z,8.20
2023-02-23T18:47:32.526Z,8.10
2023-02-23T18:50:29.606Z,8.30
2023-02-23T18:53:26.420Z,8.30
2023-02-23T18:56:28.043Z,8.20
2023-02-23T18:59:25.202Z,8.20
2023-02-23T19:02:24.382Z,8.40
2023-02-23T19:05:22.284Z,8.50
2023-02-23T19:08:20.625Z,8.60
2023-02-23T19:11:17.556Z,8.60
2023-02-23T19:14:18.251Z,8.60
2023-02-23T19:17:15.177Z,8.60
2023-02-23T19:20:15.897Z,8.50
2023-02-23T19:23:13.504Z,8.40
2023-02-23T19:26:11.695Z,8.40
2023-02-23T19:29:08.542Z,8.40
2023-02-23T19:32:05.661Z,8.40
2023-02-23T19:35:02.602Z,8.40
2023-02-23T19:37:59.789Z,8.50
2023-02-23T19:40:57.357Z,8.40
2023-02-23T19:43:54.281Z,8.40
2023-02-23T19:46:51.225Z,8.30
2023-02-23T19:49:48.031Z,8.40
2023-02-23T19:52:48.728Z,8.40
2023-02-23T19:55:45.542Z,8.30
2023-02-23T19:58:46.774Z,8.30
2023-02-23T20:01:45.245Z,8.20
2023-02-23T20:04:42.162Z,8.20
2023-02-23T20:07:40.136Z,8.20
2023-02-23T20:10:41.501Z,8.20
2023-02-23T20:13:41.350Z,8.20
2023-02-23T20:16:38.405Z,8.10
2023-02-23T20:19:35.273Z,8.20
2023-02-23T20:22:36.375Z,8.10
2023-02-23T20:25:34.673Z,8.10
2023-02-23T20:28:31.561Z,8.20
2023-02-23T20:31:35.085Z,8.10
2023-02-23T20:34:32.247Z,8.10
2023-02-23T20:37:29.275Z,8.10
2023-02-23T20:40:27.364Z,8.20
2023-02-23T20:43:24.327Z,8.00
2023-02-23T20:46:21.253Z,8.00
2023-02-23T20:49:19.115Z,8.00
2023-02-23T20:52:16.098Z,8.00
2023-02-23T20:55:13.820Z,8.00
2023-02-23T20:58:11.837Z,8.00
2023-02-23T21:01:23.672Z,7.90
2023-02-23T21:04:20.879Z,7.80
2023-02-23T21:07:17.729Z,7.80
2023-02-23T21:10:14.671Z,7.80
2023-02-23T21:13:12.048Z,7.80
2023-02-23T21:16:15.950Z,7.80
2023-02-23T21:19:15.306Z,7.80
2023-02-23T21:22:16.310Z,7.80
2023-02-23T21:25:13.193Z,7.90
2023-02-23T21:28:10.114Z,7.90
2023-02-23T21:31:10.801Z,7.90
2023-02-23T21:34:08.759Z,7.90
2023-02-23T21:37:06.169Z,7.80
2023-02-23T21:40:08.278Z,7.70
2023-02-23T21:43:09.057Z,7.70
2023-02-23T21:46:07.976Z,7.60
2023-02-23T21:49:09.506Z,7.60
2023-02-23T21:52:07.206Z,7.60
2023-02-23T21:55:07.834Z,7.70
2023-02-23T21:58:09.992Z,7.70
2023-02-23T22:01:23.053Z,7.70
2023-02-23T22:04:20.124Z,7.60
2023-02-23T22:07:17.133Z,7.50
2023-02-23T22:10:14.020Z,7.50
2023-02-23T22:13:10.935Z,7.50
2023-02-23T22:16:08.578Z,7.50
2023-02-23T22:19:06.748Z,7.60
2023-02-23T22:22:03.627Z,7.50
2023-02-23T22:25:00.562Z,7.60
2023-02-23T22:27:57.407Z,7.50
2023-02-23T22:30:55.406Z,7.40
2023-02-23T22:33:52.261Z,7.50
2023-02-23T22:36:49.999Z,7.60
2023-02-23T22:39:46.851Z,7.50
2023-02-23T22:42:48.271Z,7.50
2023-02-23T22:45:45.418Z,7.50
2023-02-23T22:48:44.941Z,7.40
2023-02-23T22:51:43.484Z,7.30
2023-02-23T22:54:40.320Z,7.30
2023-02-23T22:57:37.376Z,7.40
2023-02-23T23:00:35.052Z,7.40
2023-02-23T23:03:47.403Z,7.40
2023-02-23T23:06:44.389Z,7.40
2023-02-23T23:09:41.351Z,7.50
2023-02-23T23:12:40.201Z,7.40
2023-02-23T23:15:38.913Z,7.40
2023-02-23T23:18:36.092Z,7.40
2023-02-23T23:21:35.100Z,7.40
2023-02-23T23:24:32.212Z,7.40
2023-02-23T23:27:33.057Z,7.50
2023-02-23T23:30:29.828Z,7.50
2023-02-23T23:33:26.928Z,7.50
2023-02-23T23:36:37.405Z,7.40
2023-02-23T23:39:34.306Z,7.40
2023-02-23T23:42:31.759Z,7.30
2023-02-23T23:45:28.653Z,7.20
2023-02-23T23:48:25.569Z,7.30
2023-02-23T23:51:24.338Z,7.30
2023-02-23T23:54:28.090Z,7.20
2023-02-23T23:57:24.916Z,7.10
